KLM315 LIBD-LICJ
Flight info
| Callsign | KLM315 |
|---|---|
| Flight time | 1h 1m |
| Altitude | 28000 |
| Route | TOPNO DCT BUMOK DCT KUTID DCT AMANO M742 ROSAS |
| Aircraft | B738/M-SDE2E3FGHIRWXY/LB1 |
Departure
| Time | 2026-04-21 10:34 |
|---|---|
| Airport | Bari Karol Wojtyła International Airport (LIBD) |
Arrival
| Time | 2026-04-21 11:36 |
|---|---|
| Airport | Falcone–Borsellino Airport (LICJ) |
| Time | Latitude | Longitude | Altitude | Speed | Heading |
|---|---|---|---|---|---|
| 2026-04-21 10:13 | 41.13840 | 16.76953 | 172 ft | 0 kts | 24° |
| 2026-04-21 10:30 | 41.13841 | 16.77009 | 172 ft | 15 kts | 150° |
| 2026-04-21 10:31 | 41.13785 | 16.76926 | 172 ft | 12 kts | 251° |
| 2026-04-21 10:31 | 41.13777 | 16.76802 | 172 ft | 19 kts | 268° |
| 2026-04-21 10:31 | 41.13745 | 16.76679 | 172 ft | 21 kts | 248° |
| 2026-04-21 10:31 | 41.13773 | 16.76543 | 172 ft | 14 kts | 310° |
| 2026-04-21 10:32 | 41.13758 | 16.76381 | 172 ft | 27 kts | 248° |
| 2026-04-21 10:32 | 41.13678 | 16.76101 | 172 ft | 34 kts | 250° |
| 2026-04-21 10:32 | 41.13603 | 16.75835 | 172 ft | 28 kts | 250° |
| 2026-04-21 10:32 | 41.13538 | 16.75604 | 172 ft | 30 kts | 250° |
| 2026-04-21 10:33 | 41.13462 | 16.75335 | 172 ft | 29 kts | 249° |
| 2026-04-21 10:33 | 41.13394 | 16.75096 | 172 ft | 28 kts | 250° |
| 2026-04-21 10:33 | 41.13353 | 16.74848 | 172 ft | 24 kts | 305° |
| 2026-04-21 10:33 | 41.13455 | 16.74736 | 172 ft | 13 kts | 17° |
| 2026-04-21 10:34 | 41.13519 | 16.74873 | 172 ft | 26 kts | 70° |
| 2026-04-21 10:34 | 41.13656 | 16.75327 | 172 ft | 90 kts | 67° |
| 2026-04-21 10:34 | 41.13956 | 16.76409 | 177 ft | 158 kts | 67° |
| 2026-04-21 10:34 | 41.14371 | 16.77830 | 867 ft | 165 kts | 67° |
| 2026-04-21 10:35 | 41.14783 | 16.79261 | 1768 ft | 172 kts | 67° |
| 2026-04-21 10:35 | 41.15235 | 16.80853 | 2180 ft | 199 kts | 66° |
| 2026-04-21 10:35 | 41.15945 | 16.83389 | 2557 ft | 240 kts | 66° |
| 2026-04-21 10:35 | 41.16340 | 16.84801 | 2860 ft | 254 kts | 66° |
| 2026-04-21 10:36 | 41.16966 | 16.87040 | 3673 ft | 261 kts | 66° |
| 2026-04-21 10:36 | 41.17597 | 16.89301 | 4776 ft | 263 kts | 66° |
| 2026-04-21 10:36 | 41.18233 | 16.91607 | 5752 ft | 271 kts | 68° |
| 2026-04-21 10:36 | 41.18694 | 16.94100 | 6609 ft | 278 kts | 78° |
| 2026-04-21 10:37 | 41.18844 | 16.96673 | 7508 ft | 282 kts | 86° |
| 2026-04-21 10:37 | 41.18744 | 16.99286 | 8363 ft | 288 kts | 99° |
| 2026-04-21 10:37 | 41.17996 | 17.01752 | 9198 ft | 293 kts | 122° |
| 2026-04-21 10:37 | 41.16697 | 17.03854 | 10027 ft | 297 kts | 132° |
| 2026-04-21 10:38 | 41.15257 | 17.05840 | 10805 ft | 302 kts | 136° |
| 2026-04-21 10:38 | 41.13707 | 17.07713 | 11652 ft | 300 kts | 148° |
| 2026-04-21 10:38 | 41.11829 | 17.08853 | 12371 ft | 299 kts | 171° |
| 2026-04-21 10:38 | 41.09778 | 17.08962 | 13018 ft | 296 kts | 194° |
| 2026-04-21 10:39 | 41.07882 | 17.08018 | 13720 ft | 291 kts | 218° |
| 2026-04-21 10:39 | 41.06434 | 17.06214 | 14454 ft | 284 kts | 237° |
| 2026-04-21 10:39 | 41.05248 | 17.04169 | 15388 ft | 280 kts | 234° |
| 2026-04-21 10:39 | 41.04040 | 17.02100 | 16057 ft | 282 kts | 244° |
| 2026-04-21 10:40 | 41.03360 | 16.99685 | 16691 ft | 282 kts | 260° |
| 2026-04-21 10:40 | 41.02994 | 16.97096 | 17173 ft | 293 kts | 263° |
| 2026-04-21 10:40 | 41.02690 | 16.94345 | 17417 ft | 311 kts | 264° |
| 2026-04-21 10:40 | 41.02405 | 16.91427 | 17642 ft | 329 kts | 265° |
| 2026-04-21 10:41 | 41.02114 | 16.88358 | 17866 ft | 345 kts | 265° |
| 2026-04-21 10:41 | 41.01813 | 16.85128 | 18150 ft | 359 kts | 265° |
| 2026-04-21 10:41 | 41.01510 | 16.81820 | 18704 ft | 364 kts | 265° |
| 2026-04-21 10:41 | 41.01208 | 16.78487 | 19332 ft | 367 kts | 265° |
| 2026-04-21 10:42 | 41.00906 | 16.75134 | 19938 ft | 369 kts | 265° |
| 2026-04-21 10:42 | 41.00603 | 16.71744 | 20529 ft | 372 kts | 265° |
| 2026-04-21 10:42 | 41.00298 | 16.68328 | 21090 ft | 375 kts | 266° |
| 2026-04-21 10:42 | 40.99993 | 16.64894 | 21646 ft | 378 kts | 266° |
| 2026-04-21 10:43 | 40.99684 | 16.61427 | 22185 ft | 381 kts | 266° |
| 2026-04-21 10:43 | 40.99374 | 16.57940 | 22709 ft | 383 kts | 266° |
| 2026-04-21 10:43 | 40.99066 | 16.54385 | 23236 ft | 385 kts | 266° |
| 2026-04-21 10:43 | 40.98783 | 16.50850 | 23727 ft | 388 kts | 266° |
| 2026-04-21 10:44 | 40.98489 | 16.47284 | 24194 ft | 391 kts | 266° |
| 2026-04-21 10:44 | 40.98183 | 16.43708 | 24665 ft | 393 kts | 266° |
| 2026-04-21 10:44 | 40.97866 | 16.40086 | 25108 ft | 396 kts | 266° |
| 2026-04-21 10:44 | 40.97545 | 16.36473 | 25508 ft | 400 kts | 266° |
| 2026-04-21 10:45 | 40.97215 | 16.32808 | 25920 ft | 402 kts | 266° |
| 2026-04-21 10:45 | 40.96881 | 16.29134 | 26430 ft | 401 kts | 266° |
| 2026-04-21 10:45 | 40.96549 | 16.25488 | 26983 ft | 400 kts | 266° |
| 2026-04-21 10:45 | 40.96215 | 16.21851 | 27530 ft | 398 kts | 266° |
| 2026-04-21 10:46 | 40.95882 | 16.18218 | 27910 ft | 400 kts | 266° |
| 2026-04-21 10:46 | 40.94573 | 16.10937 | 28021 ft | 415 kts | 251° |
| 2026-04-21 10:47 | 40.91674 | 16.04301 | 28025 ft | 420 kts | 240° |
| 2026-04-21 10:47 | 40.88310 | 15.98007 | 28028 ft | 420 kts | 239° |
| 2026-04-21 10:48 | 40.84906 | 15.91729 | 28032 ft | 420 kts | 239° |
| 2026-04-21 10:48 | 40.81495 | 15.85466 | 28034 ft | 421 kts | 239° |
| 2026-04-21 10:49 | 40.78075 | 15.79202 | 28033 ft | 421 kts | 239° |
| 2026-04-21 10:49 | 40.74646 | 15.72934 | 28031 ft | 420 kts | 239° |
| 2026-04-21 10:50 | 40.71228 | 15.66701 | 28034 ft | 421 kts | 238° |
| 2026-04-21 10:50 | 40.67516 | 15.60717 | 28038 ft | 424 kts | 234° |
| 2026-04-21 10:51 | 40.63682 | 15.54851 | 28038 ft | 423 kts | 234° |
| 2026-04-21 10:51 | 40.59871 | 15.48912 | 28038 ft | 422 kts | 235° |
| 2026-04-21 10:52 | 40.56093 | 15.43028 | 28042 ft | 421 kts | 235° |
| 2026-04-21 10:52 | 40.52310 | 15.37157 | 28046 ft | 421 kts | 234° |
| 2026-04-21 10:53 | 40.48528 | 15.31299 | 28049 ft | 420 kts | 234° |
| 2026-04-21 10:53 | 40.44766 | 15.25479 | 28051 ft | 420 kts | 234° |
| 2026-04-21 10:54 | 40.40936 | 15.19596 | 28054 ft | 421 kts | 233° |
| 2026-04-21 10:54 | 40.37002 | 15.13915 | 28055 ft | 421 kts | 232° |
| 2026-04-21 10:55 | 40.33056 | 15.08253 | 28054 ft | 421 kts | 232° |
| 2026-04-21 10:55 | 40.29111 | 15.02594 | 28053 ft | 422 kts | 232° |
| 2026-04-21 10:56 | 40.25162 | 14.96932 | 28048 ft | 421 kts | 233° |
| 2026-04-21 10:56 | 40.21207 | 14.91270 | 28044 ft | 422 kts | 233° |
| 2026-04-21 10:57 | 40.17241 | 14.85571 | 28039 ft | 422 kts | 233° |
| 2026-04-21 10:57 | 40.13299 | 14.79893 | 28036 ft | 422 kts | 233° |
| 2026-04-21 10:58 | 40.09349 | 14.74227 | 28032 ft | 423 kts | 233° |
| 2026-04-21 10:58 | 40.05372 | 14.68539 | 28041 ft | 420 kts | 233° |
| 2026-04-21 10:59 | 40.01435 | 14.62924 | 28044 ft | 420 kts | 232° |
| 2026-04-21 10:59 | 39.97498 | 14.57321 | 28044 ft | 420 kts | 232° |
| 2026-04-21 11:00 | 39.93557 | 14.51723 | 28042 ft | 420 kts | 232° |
| 2026-04-21 11:00 | 39.89611 | 14.46130 | 28042 ft | 420 kts | 232° |
| 2026-04-21 11:01 | 39.85660 | 14.40540 | 28042 ft | 420 kts | 232° |
| 2026-04-21 11:01 | 39.81709 | 14.34960 | 28042 ft | 420 kts | 232° |
| 2026-04-21 11:02 | 39.75748 | 14.26559 | 28041 ft | 421 kts | 232° |
| 2026-04-21 11:02 | 39.71785 | 14.20989 | 28041 ft | 421 kts | 232° |
| 2026-04-21 11:03 | 39.67816 | 14.15419 | 28041 ft | 420 kts | 232° |
| 2026-04-21 11:03 | 39.63864 | 14.09877 | 28041 ft | 420 kts | 232° |
| 2026-04-21 11:04 | 39.59894 | 14.04292 | 28040 ft | 421 kts | 232° |
| 2026-04-21 11:04 | 39.55919 | 13.98742 | 28040 ft | 421 kts | 232° |
| 2026-04-21 11:05 | 39.51910 | 13.93166 | 28032 ft | 422 kts | 232° |
| 2026-04-21 11:05 | 39.47909 | 13.87614 | 28023 ft | 422 kts | 232° |
| 2026-04-21 11:06 | 39.43793 | 13.82187 | 28018 ft | 427 kts | 225° |
| 2026-04-21 11:06 | 39.38639 | 13.78206 | 28019 ft | 437 kts | 209° |
| 2026-04-21 11:07 | 39.33079 | 13.75509 | 28013 ft | 421 kts | 205° |
| 2026-04-21 11:07 | 39.27610 | 13.73056 | 27934 ft | 415 kts | 205° |
| 2026-04-21 11:08 | 39.24905 | 13.71838 | 27619 ft | 407 kts | 205° |
| 2026-04-21 11:08 | 39.22218 | 13.70628 | 27243 ft | 403 kts | 206° |
| 2026-04-21 11:08 | 39.19616 | 13.69455 | 26805 ft | 401 kts | 206° |
| 2026-04-21 11:08 | 39.16964 | 13.68259 | 26358 ft | 398 kts | 206° |
| 2026-04-21 11:09 | 39.14358 | 13.67075 | 25918 ft | 396 kts | 206° |
| 2026-04-21 11:09 | 39.11767 | 13.65896 | 25481 ft | 394 kts | 206° |
| 2026-04-21 11:09 | 39.09195 | 13.64730 | 25047 ft | 391 kts | 206° |
| 2026-04-21 11:09 | 39.06638 | 13.63574 | 24613 ft | 389 kts | 206° |
| 2026-04-21 11:10 | 39.04093 | 13.62427 | 24181 ft | 387 kts | 206° |
| 2026-04-21 11:10 | 39.01564 | 13.61288 | 23751 ft | 385 kts | 206° |
| 2026-04-21 11:10 | 38.99043 | 13.60155 | 23322 ft | 383 kts | 206° |
| 2026-04-21 11:10 | 38.96543 | 13.59032 | 22895 ft | 380 kts | 205° |
| 2026-04-21 11:11 | 38.94064 | 13.57919 | 22473 ft | 378 kts | 205° |
| 2026-04-21 11:11 | 38.91583 | 13.56806 | 22050 ft | 376 kts | 205° |
| 2026-04-21 11:11 | 38.89126 | 13.55705 | 21631 ft | 374 kts | 205° |
| 2026-04-21 11:11 | 38.86801 | 13.54345 | 21215 ft | 363 kts | 218° |
| 2026-04-21 11:12 | 38.84897 | 13.52337 | 20944 ft | 347 kts | 232° |
| 2026-04-21 11:12 | 38.83404 | 13.50018 | 20882 ft | 331 kts | 238° |
| 2026-04-21 11:12 | 38.82090 | 13.47668 | 20819 ft | 318 kts | 240° |
| 2026-04-21 11:12 | 38.80864 | 13.45327 | 20737 ft | 308 kts | 242° |
| 2026-04-21 11:13 | 38.79694 | 13.43063 | 20511 ft | 303 kts | 242° |
| 2026-04-21 11:13 | 38.78535 | 13.40813 | 20084 ft | 306 kts | 240° |
| 2026-04-21 11:13 | 38.77343 | 13.38494 | 19654 ft | 308 kts | 240° |
| 2026-04-21 11:13 | 38.76174 | 13.36213 | 19382 ft | 305 kts | 240° |
| 2026-04-21 11:14 | 38.75015 | 13.33952 | 19089 ft | 303 kts | 240° |
| 2026-04-21 11:14 | 38.73861 | 13.31696 | 18753 ft | 303 kts | 240° |
| 2026-04-21 11:14 | 38.72691 | 13.29409 | 18432 ft | 302 kts | 240° |
| 2026-04-21 11:14 | 38.71904 | 13.27870 | 18126 ft | 304 kts | 241° |
| 2026-04-21 11:15 | 38.70742 | 13.25598 | 17788 ft | 304 kts | 241° |
| 2026-04-21 11:15 | 38.69574 | 13.23312 | 17506 ft | 302 kts | 241° |
| 2026-04-21 11:15 | 38.68432 | 13.21078 | 17226 ft | 300 kts | 241° |
| 2026-04-21 11:15 | 38.67292 | 13.18849 | 16927 ft | 299 kts | 241° |
| 2026-04-21 11:16 | 38.66163 | 13.16631 | 16634 ft | 297 kts | 241° |
| 2026-04-21 11:16 | 38.65045 | 13.14419 | 16347 ft | 296 kts | 241° |
| 2026-04-21 11:16 | 38.63930 | 13.12220 | 16046 ft | 295 kts | 241° |
| 2026-04-21 11:16 | 38.62817 | 13.10028 | 15771 ft | 293 kts | 240° |
| 2026-04-21 11:17 | 38.61712 | 13.07855 | 15494 ft | 291 kts | 240° |
| 2026-04-21 11:17 | 38.60613 | 13.05694 | 15207 ft | 290 kts | 241° |
| 2026-04-21 11:17 | 38.59525 | 13.03540 | 14929 ft | 288 kts | 241° |
| 2026-04-21 11:17 | 38.58437 | 13.01395 | 14633 ft | 287 kts | 240° |
| 2026-04-21 11:18 | 38.57336 | 12.99234 | 14346 ft | 286 kts | 240° |
| 2026-04-21 11:18 | 38.56248 | 12.97105 | 13983 ft | 288 kts | 241° |
| 2026-04-21 11:18 | 38.55147 | 12.94956 | 13642 ft | 289 kts | 240° |
| 2026-04-21 11:18 | 38.54053 | 12.92825 | 13408 ft | 286 kts | 240° |
| 2026-04-21 11:19 | 38.52964 | 12.90708 | 13124 ft | 285 kts | 240° |
| 2026-04-21 11:19 | 38.51876 | 12.88594 | 12855 ft | 284 kts | 240° |
| 2026-04-21 11:19 | 38.50795 | 12.86498 | 12583 ft | 283 kts | 240° |
| 2026-04-21 11:19 | 38.49718 | 12.84410 | 12312 ft | 282 kts | 240° |
| 2026-04-21 11:20 | 38.48642 | 12.82325 | 12035 ft | 281 kts | 240° |
| 2026-04-21 11:20 | 38.47573 | 12.80257 | 11772 ft | 279 kts | 240° |
| 2026-04-21 11:20 | 38.46508 | 12.78195 | 11494 ft | 278 kts | 239° |
| 2026-04-21 11:20 | 38.45448 | 12.76145 | 11230 ft | 277 kts | 239° |
| 2026-04-21 11:21 | 38.44287 | 12.74147 | 10953 ft | 279 kts | 227° |
| 2026-04-21 11:21 | 38.42658 | 12.72867 | 10853 ft | 277 kts | 202° |
| 2026-04-21 11:21 | 38.40752 | 12.72550 | 10649 ft | 280 kts | 178° |
| 2026-04-21 11:21 | 38.38873 | 12.73162 | 10389 ft | 282 kts | 158° |
| 2026-04-21 11:22 | 38.37141 | 12.74337 | 10147 ft | 282 kts | 152° |
| 2026-04-21 11:22 | 38.35633 | 12.75913 | 9862 ft | 283 kts | 129° |
| 2026-04-21 11:22 | 38.34754 | 12.78136 | 9593 ft | 282 kts | 104° |
| 2026-04-21 11:22 | 38.34664 | 12.80600 | 9309 ft | 279 kts | 78° |
| 2026-04-21 11:23 | 38.35296 | 12.82909 | 9042 ft | 276 kts | 61° |
| 2026-04-21 11:23 | 38.36264 | 12.85000 | 8764 ft | 274 kts | 53° |
| 2026-04-21 11:23 | 38.37292 | 12.87023 | 8449 ft | 272 kts | 58° |
| 2026-04-21 11:23 | 38.38130 | 12.89192 | 8046 ft | 273 kts | 64° |
| 2026-04-21 11:24 | 38.38882 | 12.91435 | 7659 ft | 272 kts | 66° |
| 2026-04-21 11:24 | 38.39272 | 12.93775 | 7243 ft | 273 kts | 91° |
| 2026-04-21 11:24 | 38.38856 | 12.96100 | 6856 ft | 269 kts | 117° |
| 2026-04-21 11:24 | 38.37729 | 12.97934 | 6473 ft | 263 kts | 144° |
| 2026-04-21 11:25 | 38.36137 | 12.98984 | 6102 ft | 256 kts | 165° |
| 2026-04-21 11:25 | 38.34457 | 12.99673 | 5740 ft | 254 kts | 162° |
| 2026-04-21 11:25 | 38.32816 | 13.00515 | 5422 ft | 251 kts | 160° |
| 2026-04-21 11:25 | 38.31246 | 13.01330 | 5301 ft | 236 kts | 168° |
| 2026-04-21 11:26 | 38.29685 | 13.01374 | 5105 ft | 220 kts | 197° |
| 2026-04-21 11:26 | 38.28424 | 13.00412 | 4772 ft | 212 kts | 233° |
| 2026-04-21 11:26 | 38.27794 | 12.98731 | 4460 ft | 208 kts | 253° |
| 2026-04-21 11:26 | 38.27551 | 12.96923 | 4108 ft | 209 kts | 265° |
| 2026-04-21 11:27 | 38.27588 | 12.95073 | 3753 ft | 210 kts | 273° |
| 2026-04-21 11:27 | 38.27766 | 12.93224 | 3395 ft | 211 kts | 275° |
| 2026-04-21 11:27 | 38.27760 | 12.91381 | 3021 ft | 209 kts | 261° |
| 2026-04-21 11:27 | 38.27407 | 12.89597 | 2683 ft | 208 kts | 248° |
| 2026-04-21 11:28 | 38.26848 | 12.87901 | 2410 ft | 208 kts | 244° |
| 2026-04-21 11:28 | 38.26256 | 12.86234 | 2300 ft | 206 kts | 244° |
| 2026-04-21 11:28 | 38.25671 | 12.84616 | 2274 ft | 197 kts | 239° |
| 2026-04-21 11:28 | 38.24753 | 12.83452 | 2227 ft | 180 kts | 209° |
| 2026-04-21 11:29 | 38.23578 | 12.83053 | 2269 ft | 170 kts | 185° |
| 2026-04-21 11:29 | 38.22435 | 12.83213 | 2307 ft | 165 kts | 167° |
| 2026-04-21 11:29 | 38.21355 | 12.83683 | 2305 ft | 164 kts | 161° |
| 2026-04-21 11:29 | 38.20295 | 12.84247 | 2303 ft | 166 kts | 159° |
| 2026-04-21 11:30 | 38.19239 | 12.84832 | 2301 ft | 166 kts | 159° |
| 2026-04-21 11:30 | 38.18178 | 12.85416 | 2300 ft | 166 kts | 159° |
| 2026-04-21 11:30 | 38.17119 | 12.85995 | 2300 ft | 166 kts | 159° |
| 2026-04-21 11:30 | 38.16060 | 12.86571 | 2300 ft | 166 kts | 159° |
| 2026-04-21 11:31 | 38.14985 | 12.87154 | 2300 ft | 166 kts | 159° |
| 2026-04-21 11:31 | 38.13923 | 12.87730 | 2300 ft | 166 kts | 159° |
| 2026-04-21 11:31 | 38.12868 | 12.88302 | 2300 ft | 166 kts | 159° |
| 2026-04-21 11:31 | 38.11845 | 12.88975 | 2267 ft | 170 kts | 141° |
| 2026-04-21 11:32 | 38.11394 | 12.90365 | 2235 ft | 176 kts | 93° |
| 2026-04-21 11:32 | 38.11643 | 12.91887 | 2315 ft | 179 kts | 73° |
| 2026-04-21 11:32 | 38.12114 | 12.93358 | 2328 ft | 181 kts | 67° |
| 2026-04-21 11:32 | 38.12677 | 12.94779 | 2314 ft | 178 kts | 64° |
| 2026-04-21 11:33 | 38.13199 | 12.96175 | 2207 ft | 172 kts | 68° |
| 2026-04-21 11:33 | 38.13674 | 12.97549 | 2011 ft | 168 kts | 69° |
| 2026-04-21 11:33 | 38.14127 | 12.98878 | 1839 ft | 162 kts | 70° |
| 2026-04-21 11:33 | 38.14568 | 13.00173 | 1627 ft | 159 kts | 70° |
| 2026-04-21 11:34 | 38.14997 | 13.01439 | 1404 ft | 154 kts | 70° |
| 2026-04-21 11:34 | 38.15418 | 13.02680 | 1163 ft | 149 kts | 68° |
| 2026-04-21 11:34 | 38.15822 | 13.03874 | 922 ft | 146 kts | 66° |
| 2026-04-21 11:34 | 38.16219 | 13.05048 | 679 ft | 144 kts | 65° |
| 2026-04-21 11:35 | 38.16613 | 13.06215 | 450 ft | 145 kts | 65° |
| 2026-04-21 11:35 | 38.17009 | 13.07388 | 260 ft | 143 kts | 65° |
| 2026-04-21 11:35 | 38.17393 | 13.08527 | 113 ft | 139 kts | 65° |
| 2026-04-21 11:35 | 38.17747 | 13.09581 | 73 ft | 100 kts | 66° |
| 2026-04-21 11:36 | 38.17918 | 13.10080 | 73 ft | 31 kts | 68° |
| 2026-04-21 11:36 | 38.17983 | 13.10242 | 73 ft | 7 kts | 15° |
| 2026-04-21 11:36 | 38.18018 | 13.10158 | 73 ft | 14 kts | 276° |
| 2026-04-21 11:36 | 38.18029 | 13.10057 | 73 ft | 11 kts | 279° |
| 2026-04-21 11:37 | 38.18046 | 13.09922 | 73 ft | 20 kts | 283° |
| 2026-04-21 11:37 | 38.18156 | 13.09823 | 73 ft | 18 kts | 340° |
| 2026-04-21 11:37 | 38.18227 | 13.09873 | 73 ft | 11 kts | 65° |
| 2026-04-21 11:37 | 38.18269 | 13.09993 | 73 ft | 19 kts | 66° |
| 2026-04-21 11:38 | 38.18332 | 13.10175 | 73 ft | 23 kts | 68° |
| 2026-04-21 11:38 | 38.18385 | 13.10339 | 73 ft | 17 kts | 64° |
| 2026-04-21 11:38 | 38.18436 | 13.10410 | 73 ft | 7 kts | 4° |
| 2026-04-21 11:38 | 38.18481 | 13.10388 | 73 ft | 0 kts | 335° |